Aeroporto :
LOGIN :

Iscrizione | Disclaimer

   EN    FR    IT 

 










Sommario :    VFR   VFR Marginale   IFR   IFR Intensivo   IFR Molto Intensivo
Visibilità : 
Base nubi : 
>= 8 km
>= 3000ft
5 / 8 km
1000 / 3000 ft
1500m / 5 km
500 / 1000 ft
800 / 1500m
200 / 500 ft
< 800m
< 200 ft
Simboli :   Temporali  Nebbia  Neve Forte  Precipitazioni Forti  Vento > 20 kt
SIGMETs :   Varie  Temporali  Ghiacco  Turbolenza  Onda orograficha  Ceneri Vulcaniche







- Altitudine del aeroporto : 11 ft
- Codice IATA : SXL


EISG - Sligo

ULTIMO METAR :
  • 251130Z 28007KT 8000 NSC 10/07 Q1036

METARs OBSOLETI :
  • 251100Z 28007KT 7000 NSC 10/07 Q1036
  • 251030Z 27007KT 7000 NSC 10/07 Q1036
  • 251000Z 27006KT 6000 NSC 09/06 Q1036
  • 250930Z 27006KT 5000 BR NSC 09/07 Q1036
  • 250900Z 26005KT 4600 BR FEW019 SCT024 08/07 Q1036

TAF TAF EISG
Valido dal 25 a 12 ore il 25 a 21 ore UTC


251100Z 2512/2521 29007KT 8000 FEW035
BECMG 2516/2519 VRB03KT
Nessun NOTAM noto per questo aeroporto.



MetMap, La meteo Aeronautica in un colpo d'occhio ! - Copyright ORBIFLY Dicembre 2007 - Disclaimer

ORBIFLY MET'MAP TEAM :

Programmazione e sviluppo : Alexandra Zaïnal
Concezione e sviluppo : Baudouin d'Aumeries
Co-Programmazione e sviluppo : Marc-Olivier Méhu
Supporto tecnico e logistico : Manuel Goepfert
Aiuto per la traduzione : Arnaldo La Scala

Contatto : metmap@orbifly.com




FONTI E CREDITI :

   NOAA